Beaverton, Canada
Current Conditions -  °F | °C
As of 11:00 AM on Friday 19 Dec 2014 (Local Time) from CYQA Reporting Station
Broken Clouds Broken Clouds  
Wind Chill:   Ceiling: 13000
Heat Index: 16°   Visibility: 9mi
Dew Point: 12°   Wind: 9mph
Humidity: 86%   Direction: 320°NW
Pressure: 30.17"   Gusts: NA
Location:  44.43°N, 79.15°W
Report Text: CYQA 191600Z AUTO 32008KT 9SM BKN130 M09/M11 A3017 RMK SLP236
Loading
Personal Weather Stations






























Interactive Weather Map New forecast layout! Learn more

10-Day Weather Forecast

Advertisements
Track Severe Weather on mobile